Time;durP1;ratioP1;P1;durP2;ratioP2;P2;SDS_P1;SDS_P2;PMS_P1;PMS_P2;Temp;Humidity;BMP_temperature;BMP_pressure;BME280_temperature;BME280_humidity;BME280_pressure;Samples;Min_cycle;Max_cycle;Signal;HPM_P1;HPM_P2
2022/07/29 00:01:48;;;;;;;4.47;4.07;;;;;;;;;;10079343;28;20048;-74
2022/07/29 00:06:42;;;;;;;6.45;3.92;;;;;;;;;;10072707;28;20136;-74
2022/07/29 00:11:37;;;;;;;5.32;3.72;;;;;;;;;;10072373;28;20580;-75
2022/07/29 00:16:31;;;;;;;6.90;3.78;;;;;;;;;;10071114;28;20055;-74
2022/07/29 00:21:25;;;;;;;5.72;4.28;;;;;;;;;;10070579;28;20068;-73
2022/07/29 00:26:19;;;;;;;21.90;7.15;;;;;;;;;;10070798;28;20059;-74
2022/07/29 00:31:12;;;;;;;4.65;4.25;;;;;;;;;;10071435;28;20048;-73
2022/07/29 00:36:06;;;;;;;6.85;5.18;;;;;;;;;;10071039;28;20064;-74
2022/07/29 00:41:01;;;;;;;7.75;6.20;;;;;;;;;;10070773;28;20054;-72
2022/07/29 00:45:54;;;;;;;6.53;5.93;;;;;;;;;;10066317;28;20045;-73
2022/07/29 00:50:50;;;;;;;8.30;6.35;;;;;;;;;;10072259;28;20053;-73
2022/07/29 00:55:44;;;;;;;5.95;5.32;;;;;;;;;;10071337;28;20053;-72
2022/07/29 01:00:40;;;;;;;8.10;6.78;;;;;;;;;;10079605;28;20128;-72
2022/07/29 01:05:36;;;;;;;6.45;5.57;;;;;;;;;;10079197;28;20762;-72
2022/07/29 01:10:44;;;;;;;6.25;5.45;;;;;;;;;;10083581;28;20136;-73
2022/07/29 01:15:55;;;;;;;8.20;7.38;;;;;;;;;;10084219;28;20385;-72
2022/07/29 01:20:51;;;;;;;7.03;6.40;;;;;;;;;;10066895;28;20057;-72
2022/07/29 01:26:05;;;;;;;10.18;7.60;;;;;;;;;;10070019;28;20069;-72
2022/07/29 01:31:03;;;;;;;8.07;6.57;;;;;;;;;;10068147;28;20049;-72
2022/07/29 01:35:58;;;;;;;21.98;7.65;;;;;;;;;;10069143;28;20073;-72
2022/07/29 01:40:58;;;;;;;10.27;7.18;;;;;;;;;;10071338;28;20069;-73
2022/07/29 01:46:01;;;;;;;10.98;7.45;;;;;;;;;;10079709;28;20043;-72
2022/07/29 01:51:17;;;;;;;7.78;6.97;;;;;;;;;;10061685;28;20099;-72
2022/07/29 01:56:12;;;;;;;9.85;6.18;;;;;;;;;;10083258;28;20053;-72
2022/07/29 02:01:09;;;;;;;7.53;5.45;;;;;;;;;;10068070;28;20068;-72
2022/07/29 02:06:03;;;;;;;7.38;5.45;;;;;;;;;;10075225;28;20045;-72
2022/07/29 02:10:58;;;;;;;8.30;4.90;;;;;;;;;;10076757;28;20103;-71
2022/07/29 02:15:53;;;;;;;8.63;6.07;;;;;;;;;;10075505;28;20050;-71
2022/07/29 02:20:48;;;;;;;9.32;5.47;;;;;;;;;;10065888;28;20420;-71
2022/07/29 02:25:41;;;;;;;7.30;5.05;;;;;;;;;;10067720;28;20042;-71
2022/07/29 02:30:40;;;;;;;7.50;5.43;;;;;;;;;;10061948;28;20099;-72
2022/07/29 02:35:34;;;;;;;9.10;5.30;;;;;;;;;;10069661;28;20060;-72
2022/07/29 02:40:28;;;;;;;10.82;6.28;;;;;;;;;;10069587;28;20043;-74
2022/07/29 02:45:23;;;;;;;6.82;5.93;;;;;;;;;;10068840;28;20057;-75
2022/07/29 02:50:35;;;;;;;6.35;5.65;;;;;;;;;;10062211;28;20049;-73
2022/07/29 02:55:29;;;;;;;8.25;6.15;;;;;;;;;;10062269;28;20053;-75
2022/07/29 03:00:30;;;;;;;7.07;6.25;;;;;;;;;;10065556;28;20492;-75
2022/07/29 03:05:25;;;;;;;7.03;6.20;;;;;;;;;;10066589;28;20057;-74
2022/07/29 03:10:18;;;;;;;7.38;6.68;;;;;;;;;;10066314;28;20056;-75
2022/07/29 03:15:12;;;;;;;8.70;6.15;;;;;;;;;;10065162;28;20041;-74
2022/07/29 03:20:07;;;;;;;9.07;6.80;;;;;;;;;;10067188;28;20478;-73
2022/07/29 03:25:08;;;;;;;8.32;7.55;;;;;;;;;;10073887;28;20520;-72
2022/07/29 03:30:02;;;;;;;15.50;7.43;;;;;;;;;;10074091;28;20076;-74
2022/07/29 03:35:00;;;;;;;9.98;7.70;;;;;;;;;;10072677;28;20046;-74
2022/07/29 03:39:55;;;;;;;11.00;8.55;;;;;;;;;;10072372;28;20045;-74
2022/07/29 03:44:50;;;;;;;10.38;8.30;;;;;;;;;;10072195;28;20099;-73
2022/07/29 03:49:45;;;;;;;10.77;8.23;;;;;;;;;;10072101;28;20513;-74
2022/07/29 03:54:39;;;;;;;8.38;7.63;;;;;;;;;;10073016;28;20060;-73
2022/07/29 03:59:33;;;;;;;15.00;9.85;;;;;;;;;;10072553;28;20060;-73
2022/07/29 04:04:27;;;;;;;15.85;9.98;;;;;;;;;;10071744;28;20049;-73
2022/07/29 04:09:21;;;;;;;11.18;9.55;;;;;;;;;;10066959;28;20060;-73
2022/07/29 04:14:15;;;;;;;15.35;11.07;;;;;;;;;;10072848;28;20054;-73
2022/07/29 04:19:10;;;;;;;13.65;11.25;;;;;;;;;;10071578;28;20053;-73
2022/07/29 04:24:04;;;;;;;18.50;11.57;;;;;;;;;;10070283;28;20111;-73
2022/07/29 04:28:58;;;;;;;17.38;10.55;;;;;;;;;;10071120;28;20132;-73
2022/07/29 04:33:52;;;;;;;12.35;10.15;;;;;;;;;;10071701;28;20513;-73
2022/07/29 04:38:46;;;;;;;10.75;9.75;;;;;;;;;;10060977;28;20046;-73
2022/07/29 04:43:40;;;;;;;10.88;9.77;;;;;;;;;;10067919;28;20153;-73
2022/07/29 04:48:34;;;;;;;10.38;9.38;;;;;;;;;;10066196;28;20073;-73
2022/07/29 04:53:27;;;;;;;10.10;9.18;;;;;;;;;;10071476;28;20128;-73
2022/07/29 04:58:23;;;;;;;11.38;10.27;;;;;;;;;;10070164;28;20500;-74
2022/07/29 05:03:16;;;;;;;10.88;9.82;;;;;;;;;;10066486;28;20419;-73
2022/07/29 05:08:10;;;;;;;11.40;10.38;;;;;;;;;;10068132;28;20120;-73
2022/07/29 05:13:07;;;;;;;14.73;10.80;;;;;;;;;;10070154;28;20132;-73
2022/07/29 05:18:00;;;;;;;14.07;11.70;;;;;;;;;;10070282;28;20061;-74
2022/07/29 05:22:56;;;;;;;12.88;11.65;;;;;;;;;;10070573;28;20057;-73
2022/07/29 05:27:49;;;;;;;13.25;12.05;;;;;;;;;;10069775;28;20499;-71
2022/07/29 05:32:43;;;;;;;21.92;14.18;;;;;;;;;;10068351;28;20059;-75
2022/07/29 05:37:37;;;;;;;17.98;11.48;;;;;;;;;;10063082;28;20128;-75
2022/07/29 05:42:31;;;;;;;17.00;12.93;;;;;;;;;;10064616;28;20050;-74
2022/07/29 05:47:26;;;;;;;15.52;11.77;;;;;;;;;;10072476;28;20057;-70
2022/07/29 05:52:20;;;;;;;14.95;11.85;;;;;;;;;;10059355;28;20080;-74
2022/07/29 05:57:21;;;;;;;14.68;10.88;;;;;;;;;;10068656;28;20045;-74
2022/07/29 06:02:16;;;;;;;13.98;11.55;;;;;;;;;;10065758;28;20041;-71
2022/07/29 06:07:11;;;;;;;15.18;11.27;;;;;;;;;;10071660;28;20520;-71
2022/07/29 06:12:09;;;;;;;16.48;10.55;;;;;;;;;;10074800;28;20072;-71
2022/07/29 06:17:03;;;;;;;14.63;11.65;;;;;;;;;;10065930;28;20050;-71
2022/07/29 06:21:57;;;;;;;11.88;10.77;;;;;;;;;;10066854;28;20390;-72
2022/07/29 06:26:54;;;;;;;14.40;11.48;;;;;;;;;;10067068;28;20045;-72
2022/07/29 06:31:48;;;;;;;14.60;11.70;;;;;;;;;;10065120;28;20065;-72
2022/07/29 06:36:42;;;;;;;19.55;11.05;;;;;;;;;;10064054;28;20076;-72
2022/07/29 06:41:35;;;;;;;12.43;11.20;;;;;;;;;;10066715;28;20095;-71
2022/07/29 06:46:34;;;;;;;14.38;10.23;;;;;;;;;;10057206;28;20737;-74
2022/07/29 06:51:28;;;;;;;12.45;10.80;;;;;;;;;;10056947;28;20171;-74
2022/07/29 06:56:22;;;;;;;13.60;10.88;;;;;;;;;;10061547;28;20111;-73
2022/07/29 07:01:16;;;;;;;11.75;10.30;;;;;;;;;;10059611;28;20049;-74
2022/07/29 07:06:10;;;;;;;15.98;9.85;;;;;;;;;;10058299;28;20049;-74
2022/07/29 07:11:09;;;;;;;13.10;9.83;;;;;;;;;;10055005;28;20062;-73
2022/07/29 07:16:05;;;;;;;13.65;11.57;;;;;;;;;;10064904;28;20103;-74
2022/07/29 07:21:00;;;;;;;11.93;10.75;;;;;;;;;;10064133;28;20401;-72
2022/07/29 07:25:53;;;;;;;14.00;10.95;;;;;;;;;;10058527;28;20104;-73
2022/07/29 07:30:47;;;;;;;13.90;9.13;;;;;;;;;;10039731;28;20132;-72
2022/07/29 07:35:41;;;;;;;13.73;10.68;;;;;;;;;;10059480;28;20511;-72
2022/07/29 07:40:36;;;;;;;10.93;9.63;;;;;;;;;;10032599;28;20134;-72
2022/07/29 07:45:32;;;;;;;13.10;10.48;;;;;;;;;;10061270;28;20054;-72
2022/07/29 07:50:26;;;;;;;15.73;10.48;;;;;;;;;;10064433;28;20120;-72
2022/07/29 07:55:21;;;;;;;10.75;8.90;;;;;;;;;;10064976;28;20049;-72
2022/07/29 08:00:16;;;;;;;10.05;9.00;;;;;;;;;;10064601;28;20111;-74
2022/07/29 08:05:13;;;;;;;10.02;8.55;;;;;;;;;;10059392;28;20087;-73
2022/07/29 08:10:09;;;;;;;9.50;8.50;;;;;;;;;;10035374;28;20508;-74
2022/07/29 08:15:04;;;;;;;15.55;8.50;;;;;;;;;;10056800;28;20079;-74
2022/07/29 08:19:58;;;;;;;10.27;8.70;;;;;;;;;;10072290;28;20064;-67
2022/07/29 08:24:55;;;;;;;10.57;8.23;;;;;;;;;;10075211;28;20073;-68
2022/07/29 08:29:48;;;;;;;;;;;;;;;;;;10068900;28;20461;-67
2022/07/29 08:34:45;;;;;;;12.07;7.60;;;;;;;;;;10069857;28;20312;-68
2022/07/29 08:39:39;;;;;;;12.93;7.13;;;;;;;;;;10071194;28;20048;-67
2022/07/29 08:44:33;;;;;;;7.10;6.18;;;;;;;;;;10070852;28;20542;-67
2022/07/29 08:49:27;;;;;;;8.45;7.28;;;;;;;;;;10070067;28;20047;-67
2022/07/29 08:54:23;;;;;;;41.47;8.50;;;;;;;;;;10071112;28;20140;-68
2022/07/29 08:59:19;;;;;;;8.05;6.00;;;;;;;;;;10070359;28;20045;-68
2022/07/29 09:04:14;;;;;;;6.97;5.93;;;;;;;;;;10065014;28;20061;-67
2022/07/29 09:09:09;;;;;;;7.13;4.68;;;;;;;;;;10069198;28;20112;-67
2022/07/29 09:14:02;;;;;;;10.23;5.93;;;;;;;;;;10063753;28;20053;-67
2022/07/29 09:18:57;;;;;;;10.80;5.63;;;;;;;;;;10056675;28;20061;-68
2022/07/29 09:24:02;;;;;;;7.60;5.78;;;;;;;;;;10072451;28;20046;-68
2022/07/29 09:28:57;;;;;;;9.52;4.38;;;;;;;;;;10063218;28;20053;-68
2022/07/29 09:33:50;;;;;;;5.72;4.38;;;;;;;;;;10067234;28;20049;-68
2022/07/29 09:38:58;;;;;;;10.35;5.10;;;;;;;;;;10063290;28;20045;-66
2022/07/29 09:43:57;;;;;;;7.15;5.07;;;;;;;;;;10068046;28;20468;-67
2022/07/29 09:49:27;;;;;;;10.52;4.03;;;;;;;;;;10071016;28;20095;-66
2022/07/29 09:54:23;;;;;;;3.97;3.58;;;;;;;;;;10067461;28;20049;-64
2022/07/29 09:59:17;;;;;;;;;;;;;;;;;;10068128;28;20061;-64
2022/07/29 10:04:11;;;;;;;6.78;4.03;;;;;;;;;;10066186;28;19929;-64
2022/07/29 10:09:09;;;;;;;9.55;4.13;;;;;;;;;;10056425;28;20054;-64
2022/07/29 10:14:04;;;;;;;9.52;5.13;;;;;;;;;;10054070;28;20057;-64
2022/07/29 10:19:01;;;;;;;5.35;4.32;;;;;;;;;;10058441;28;20083;-65
2022/07/29 10:23:55;;;;;;;9.25;4.78;;;;;;;;;;10060072;28;20064;-65
2022/07/29 10:28:53;;;;;;;9.43;3.50;;;;;;;;;;10064372;28;20538;-64
2022/07/29 10:34:45;;;;;;;6.70;4.43;;;;;;;;;;10062529;28;20049;-65
2022/07/29 10:45:24;;;;;;;5.63;3.53;;;;;;;;;;10064099;28;20124;-64
2022/07/29 10:50:20;;;;;;;6.65;3.40;;;;;;;;;;10080727;28;20055;-64
2022/07/29 10:55:44;;;;;;;4.25;2.95;;;;;;;;;;10069350;28;20041;-64
2022/07/29 11:00:40;;;;;;;8.43;4.65;;;;;;;;;;10057711;28;20543;-64
2022/07/29 11:05:56;;;;;;;4.63;3.13;;;;;;;;;;10067681;28;20558;-64
2022/07/29 11:10:53;;;;;;;9.40;3.30;;;;;;;;;;10061654;28;20477;-63
2022/07/29 11:15:56;;;;;;;8.73;3.20;;;;;;;;;;10063815;28;20053;-63
2022/07/29 11:20:53;;;;;;;4.55;2.85;;;;;;;;;;10063907;28;20056;-63
2022/07/29 11:26:09;;;;;;;4.90;2.97;;;;;;;;;;10070529;28;20477;-64
2022/07/29 11:31:04;;;;;;;7.13;2.92;;;;;;;;;;10064666;28;20037;-64
2022/07/29 11:36:11;;;;;;;10.57;4.32;;;;;;;;;;10061649;28;20136;-64
2022/07/29 11:41:28;;;;;;;3.13;2.78;;;;;;;;;;10066711;28;20045;-63
2022/07/29 11:46:46;;;;;;;5.13;2.70;;;;;;;;;;10072036;28;20061;-63
2022/07/29 11:51:42;;;;;;;;;;;;;;;;;;10072113;28;20115;-64
2022/07/29 11:56:58;;;;;;;10.02;2.45;;;;;;;;;;10066316;28;20335;-64
2022/07/29 12:01:57;;;;;;;8.07;2.97;;;;;;;;;;10070114;28;20128;-64
2022/07/29 12:07:11;;;;;;;4.32;2.72;;;;;;;;;;10078907;28;20049;-64
2022/07/29 12:12:08;;;;;;;6.30;3.33;;;;;;;;;;10070003;28;20076;-64
2022/07/29 12:17:02;;;;;;;5.05;2.47;;;;;;;;;;10068530;28;20099;-66
2022/07/29 12:21:59;;;;;;;4.78;2.65;;;;;;;;;;10080322;28;20079;-65
2022/07/29 12:27:18;;;;;;;7.20;2.78;;;;;;;;;;10074473;28;20083;-67
2022/07/29 12:32:21;;;;;;;5.80;3.03;;;;;;;;;;10082666;28;20049;-68
2022/07/29 12:37:17;;;;;;;4.50;3.17;;;;;;;;;;10075359;28;20507;-67
2022/07/29 12:42:23;;;;;;;7.70;3.35;;;;;;;;;;10071479;28;20079;-67
2022/07/29 12:47:18;;;;;;;5.50;2.95;;;;;;;;;;10067793;28;20456;-67
2022/07/29 12:52:23;;;;;;;8.98;3.10;;;;;;;;;;10068851;28;20560;-65
2022/07/29 12:57:17;;;;;;;5.00;2.60;;;;;;;;;;10069641;28;20057;-65
2022/07/29 13:02:31;;;;;;;7.60;3.33;;;;;;;;;;10068474;28;20041;-65
2022/07/29 13:07:31;;;;;;;7.18;3.65;;;;;;;;;;10058505;28;20508;-66
2022/07/29 13:13:05;;;;;;;3.28;2.47;;;;;;;;;;10066784;28;20099;-68
2022/07/29 13:17:59;;;;;;;4.97;2.92;;;;;;;;;;10062857;28;20085;-68
2022/07/29 13:22:52;;;;;;;5.22;3.00;;;;;;;;;;10066381;28;20076;-67
2022/07/29 13:27:46;;;;;;;3.22;2.40;;;;;;;;;;10059265;28;20061;-66
2022/07/29 13:32:40;;;;;;;5.10;2.50;;;;;;;;;;10061234;28;20041;-67
2022/07/29 13:37:38;;;;;;;3.87;2.30;;;;;;;;;;10064033;28;20059;-63
2022/07/29 13:42:32;;;;;;;11.48;3.53;;;;;;;;;;10064812;28;20060;-64
2022/07/29 13:47:27;;;;;;;7.25;2.88;;;;;;;;;;10074633;28;20049;-65
2022/07/29 13:52:25;;;;;;;3.90;2.25;;;;;;;;;;10066045;28;20091;-64
2022/07/29 13:57:20;;;;;;;7.03;3.35;;;;;;;;;;10066611;28;20111;-65
2022/07/29 14:02:14;;;;;;;5.47;2.60;;;;;;;;;;10066407;28;20424;-65
2022/07/29 14:07:07;;;;;;;9.45;3.80;;;;;;;;;;10064813;28;20052;-65
2022/07/29 14:12:02;;;;;;;5.10;2.47;;;;;;;;;;10071143;28;20045;-66
2022/07/29 14:16:57;;;;;;;7.15;2.45;;;;;;;;;;10063480;28;20052;-65
2022/07/29 14:21:51;;;;;;;9.43;3.95;;;;;;;;;;10074039;28;20049;-65
2022/07/29 14:26:49;;;;;;;21.73;4.80;;;;;;;;;;10082133;28;20053;-65
2022/07/29 14:31:43;;;;;;;17.70;4.30;;;;;;;;;;10068431;28;20072;-66
2022/07/29 14:36:38;;;;;;;37.88;6.93;;;;;;;;;;10075039;28;20045;-66
2022/07/29 14:41:31;;;;;;;23.00;8.25;;;;;;;;;;10061339;28;20045;-63
2022/07/29 14:46:25;;;;;;;42.17;10.80;;;;;;;;;;10075778;28;20080;-67
2022/07/29 14:51:20;;;;;;;28.75;10.75;;;;;;;;;;10062576;28;20493;-67
2022/07/29 14:56:14;;;;;;;15.55;8.15;;;;;;;;;;10058888;28;20528;-67
2022/07/29 15:01:27;;;;;;;20.77;9.85;;;;;;;;;;10065538;28;20128;-67
2022/07/29 15:06:22;;;;;;;20.55;7.95;;;;;;;;;;10056224;28;21023;-68
2022/07/29 15:11:16;;;;;;;11.88;8.40;;;;;;;;;;10069181;28;20508;-67
2022/07/29 15:16:10;;;;;;;54.30;9.60;;;;;;;;;;10062380;28;20050;-67
2022/07/29 15:21:06;;;;;;;14.68;7.65;;;;;;;;;;10073273;28;20123;-67
2022/07/29 15:26:01;;;;;;;12.32;7.57;;;;;;;;;;10071149;28;20063;-67
2022/07/29 15:30:56;;;;;;;10.43;8.32;;;;;;;;;;10067432;28;20116;-67
2022/07/29 15:35:50;;;;;;;11.07;8.95;;;;;;;;;;10073769;28;20415;-67
2022/07/29 15:40:45;;;;;;;17.35;10.95;;;;;;;;;;10073411;28;20136;-67
2022/07/29 15:50:55;;;;;;;8.63;7.18;;;;;;;;;;10068397;28;20521;-67
2022/07/29 15:55:49;;;;;;;8.93;6.00;;;;;;;;;;10066340;28;20492;-67
2022/07/29 16:00:44;;;;;;;7.00;5.55;;;;;;;;;;10068349;28;20731;-67
2022/07/29 16:05:39;;;;;;;6.78;5.22;;;;;;;;;;10065638;28;20127;-67
2022/07/29 16:10:33;;;;;;;6.82;6.13;;;;;;;;;;10065034;28;20049;-68
2022/07/29 16:15:27;;;;;;;9.75;7.22;;;;;;;;;;10064746;28;20053;-68
2022/07/29 16:20:22;;;;;;;9.65;6.93;;;;;;;;;;10070281;28;20061;-68
2022/07/29 16:25:16;;;;;;;6.43;5.82;;;;;;;;;;10064057;28;20045;-67
2022/07/29 16:30:10;;;;;;;9.75;7.38;;;;;;;;;;10072357;28;20063;-68
2022/07/29 16:35:05;;;;;;;8.45;7.60;;;;;;;;;;10079463;28;20453;-67
2022/07/29 16:39:58;;;;;;;8.05;6.72;;;;;;;;;;10077501;28;20057;-67
2022/07/29 16:44:52;;;;;;;9.73;6.72;;;;;;;;;;10086423;28;20053;-67
2022/07/29 16:49:46;;;;;;;10.63;7.70;;;;;;;;;;10083328;28;20467;-67
2022/07/29 16:54:40;;;;;;;14.30;9.05;;;;;;;;;;10067253;28;20083;-67
2022/07/29 16:59:33;;;;;;;9.52;7.50;;;;;;;;;;10073124;28;20049;-67
2022/07/29 17:04:35;;;;;;;9.77;7.35;;;;;;;;;;10069050;28;20120;-67
2022/07/29 17:09:31;;;;;;;9.52;6.88;;;;;;;;;;10066201;28;20060;-67
2022/07/29 17:14:27;;;;;;;12.23;6.68;;;;;;;;;;10068495;28;20095;-67
2022/07/29 17:19:22;;;;;;;8.23;7.30;;;;;;;;;;10069763;28;20068;-67
2022/07/29 17:24:15;;;;;;;7.32;6.40;;;;;;;;;;10063380;28;20471;-68
2022/07/29 17:29:11;;;;;;;7.20;6.05;;;;;;;;;;10064775;28;20050;-66
2022/07/29 17:34:07;;;;;;;7.85;6.00;;;;;;;;;;10068254;28;20072;-67
2022/07/29 17:39:05;;;;;;;11.80;7.00;;;;;;;;;;10077459;28;20064;-66
2022/07/29 17:43:58;;;;;;;8.38;7.57;;;;;;;;;;10076028;28;20484;-66
2022/07/29 17:48:54;;;;;;;8.48;7.63;;;;;;;;;;10068675;28;20107;-66
2022/07/29 17:53:48;;;;;;;8.85;8.00;;;;;;;;;;10068690;28;20049;-66
2022/07/29 17:58:42;;;;;;;10.80;8.55;;;;;;;;;;10066838;28;20056;-65
2022/07/29 18:03:36;;;;;;;12.32;9.65;;;;;;;;;;10066148;28;20050;-65
2022/07/29 18:08:30;;;;;;;11.43;9.82;;;;;;;;;;10063742;28;20133;-66
2022/07/29 18:13:26;;;;;;;12.85;10.70;;;;;;;;;;10063098;28;20057;-66
2022/07/29 18:18:23;;;;;;;11.80;10.68;;;;;;;;;;10058616;28;20053;-66
2022/07/29 18:23:17;;;;;;;16.75;10.15;;;;;;;;;;10065074;28;20136;-67
2022/07/29 18:28:11;;;;;;;11.73;10.52;;;;;;;;;;10065208;28;20041;-66
2022/07/29 18:33:07;;;;;;;11.77;10.55;;;;;;;;;;10060690;28;20045;-66
2022/07/29 18:38:17;;;;;;;13.32;10.05;;;;;;;;;;10061520;28;20461;-66
2022/07/29 18:43:11;;;;;;;13.13;11.85;;;;;;;;;;10055285;28;20392;-66
2022/07/29 18:48:09;;;;;;;13.90;12.63;;;;;;;;;;10068083;28;20033;-67
2022/07/29 18:53:06;;;;;;;17.30;15.27;;;;;;;;;;10058530;28;20496;-67
2022/07/29 18:58:00;;;;;;;16.73;13.23;;;;;;;;;;10065172;28;20140;-67
2022/07/29 19:02:55;;;;;;;15.20;13.77;;;;;;;;;;10064888;28;20080;-66
2022/07/29 19:07:49;;;;;;;17.75;16.02;;;;;;;;;;10064789;28;20124;-65
2022/07/29 19:12:45;;;;;;;16.27;14.63;;;;;;;;;;10057206;28;20052;-65
2022/07/29 19:17:40;;;;;;;15.32;13.93;;;;;;;;;;10063796;28;20456;-66
2022/07/29 19:22:34;;;;;;;14.60;13.27;;;;;;;;;;10061511;28;20078;-68
2022/07/29 19:27:29;;;;;;;15.27;13.88;;;;;;;;;;10062125;28;20077;-67
2022/07/29 19:32:25;;;;;;;15.18;13.88;;;;;;;;;;10059653;28;20041;-69
2022/07/29 19:37:20;;;;;;;14.63;13.13;;;;;;;;;;10057045;28;20041;-72
2022/07/29 19:42:15;;;;;;;17.17;14.80;;;;;;;;;;10059477;28;20536;-69
2022/07/29 19:47:12;;;;;;;16.38;14.75;;;;;;;;;;10047752;28;20476;-68
2022/07/29 19:52:10;;;;;;;17.05;15.32;;;;;;;;;;10049098;28;20112;-71
2022/07/29 19:57:06;;;;;;;14.07;12.40;;;;;;;;;;10055721;28;20049;-67
2022/07/29 20:02:03;;;;;;;13.00;11.63;;;;;;;;;;10054086;28;20514;-67
2022/07/29 20:06:59;;;;;;;12.23;11.00;;;;;;;;;;10052848;28;20381;-67
2022/07/29 20:11:54;;;;;;;11.35;9.23;;;;;;;;;;10059132;28;20057;-68
2022/07/29 20:16:48;;;;;;;12.57;10.45;;;;;;;;;;10053676;28;20050;-67
2022/07/29 20:21:42;;;;;;;12.80;10.40;;;;;;;;;;10063425;28;20092;-67
2022/07/29 20:26:35;;;;;;;13.60;10.85;;;;;;;;;;10058755;28;20053;-68
2022/07/29 20:31:30;;;;;;;15.05;13.45;;;;;;;;;;10062838;28;20049;-68
2022/07/29 20:36:25;;;;;;;15.00;13.48;;;;;;;;;;10064668;28;20037;-68
2022/07/29 20:41:19;;;;;;;15.27;13.63;;;;;;;;;;10065731;28;20041;-68
2022/07/29 20:46:13;;;;;;;16.13;14.57;;;;;;;;;;10065596;28;20099;-68
2022/07/29 20:51:08;;;;;;;16.88;15.25;;;;;;;;;;10053080;28;20080;-68
2022/07/29 20:56:02;;;;;;;19.10;15.68;;;;;;;;;;10059970;28;20049;-68
2022/07/29 21:00:56;;;;;;;16.33;14.82;;;;;;;;;;10065470;28;20045;-69
2022/07/29 21:05:55;;;;;;;16.40;14.63;;;;;;;;;;10069075;28;20509;-65
2022/07/29 21:10:53;;;;;;;17.00;15.20;;;;;;;;;;10058401;28;20054;-67
2022/07/29 21:15:50;;;;;;;18.30;14.95;;;;;;;;;;10065348;28;20049;-67
2022/07/29 21:20:45;;;;;;;17.52;15.77;;;;;;;;;;10059133;28;20408;-66
2022/07/29 21:25:42;;;;;;;16.67;15.07;;;;;;;;;;10062443;28;20120;-65
2022/07/29 21:30:36;;;;;;;18.17;15.15;;;;;;;;;;10062696;28;20049;-65
2022/07/29 21:35:30;;;;;;;16.15;14.25;;;;;;;;;;10060413;28;20107;-65
2022/07/29 21:40:46;;;;;;;17.88;14.77;;;;;;;;;;10060805;28;20045;-72
2022/07/29 21:45:42;;;;;;;15.93;14.43;;;;;;;;;;10062242;28;20049;-68
2022/07/29 21:50:39;;;;;;;13.73;11.75;;;;;;;;;;10056806;28;20041;-64
2022/07/29 21:55:35;;;;;;;13.93;12.02;;;;;;;;;;10061912;28;20504;-68
2022/07/29 22:00:34;;;;;;;14.32;12.65;;;;;;;;;;10062732;28;20041;-65
2022/07/29 22:05:47;;;;;;;13.38;11.48;;;;;;;;;;10056312;28;20052;-66
2022/07/29 22:10:45;;;;;;;11.82;10.63;;;;;;;;;;10055946;28;20049;-65
2022/07/29 22:15:43;;;;;;;12.45;11.23;;;;;;;;;;10060645;28;20073;-67
2022/07/29 22:20:40;;;;;;;13.02;11.82;;;;;;;;;;10058602;28;20061;-67
2022/07/29 22:25:36;;;;;;;11.50;10.40;;;;;;;;;;10051021;28;20049;-68
2022/07/29 22:30:31;;;;;;;14.52;10.43;;;;;;;;;;10057306;28;20048;-68
2022/07/29 22:35:26;;;;;;;11.02;9.93;;;;;;;;;;10056286;28;20045;-67
2022/07/29 22:40:20;;;;;;;12.13;10.88;;;;;;;;;;10053227;28;20140;-68
2022/07/29 22:45:15;;;;;;;10.73;9.75;;;;;;;;;;10054821;28;20158;-68
2022/07/29 22:50:09;;;;;;;11.02;10.00;;;;;;;;;;10062532;28;20531;-68
2022/07/29 22:55:03;;;;;;;11.27;10.20;;;;;;;;;;10066313;28;20084;-67
2022/07/29 23:00:00;;;;;;;12.73;11.52;;;;;;;;;;10066094;28;20424;-68
2022/07/29 23:04:54;;;;;;;13.15;11.82;;;;;;;;;;10064081;28;20451;-68
2022/07/29 23:09:48;;;;;;;12.23;11.02;;;;;;;;;;10062299;28;20448;-68
2022/07/29 23:14:41;;;;;;;12.02;10.93;;;;;;;;;;10058725;28;20447;-68
2022/07/29 23:19:34;;;;;;;13.02;10.05;;;;;;;;;;10054122;28;20132;-68
2022/07/29 23:24:29;;;;;;;12.40;10.45;;;;;;;;;;10044350;28;20037;-67
2022/07/29 23:29:23;;;;;;;14.30;12.85;;;;;;;;;;10066414;28;20412;-68
2022/07/29 23:34:18;;;;;;;13.88;12.65;;;;;;;;;;10065510;28;20061;-68
2022/07/29 23:39:12;;;;;;;12.75;11.65;;;;;;;;;;10072404;28;20512;-67
2022/07/29 23:44:05;;;;;;;16.42;14.10;;;;;;;;;;10073546;28;20132;-67
2022/07/29 23:48:59;;;;;;;16.33;14.68;;;;;;;;;;10072414;28;20049;-67
2022/07/29 23:53:53;;;;;;;16.55;15.13;;;;;;;;;;10073182;28;20053;-68
2022/07/29 23:58:47;;;;;;;18.05;16.15;;;;;;;;;;10071695;28;20103;-68
